Time;durP1;ratioP1;P1;durP2;ratioP2;P2;SDS_P1;SDS_P2;PMS_P1;PMS_P2;Temp;Humidity;BMP_temperature;BMP_pressure;BME280_temperature;BME280_humidity;BME280_pressure;Samples;Min_cycle;Max_cycle;Signal;HPM_P1;HPM_P2
2023/10/12 00:01:40;;;;;;;5.87;1.17;;;13.50;99.90;;;;;;5077529;28;20227;-82
2023/10/12 00:04:11;;;;;;;6.50;1.30;;;13.50;99.90;;;;;;5065075;28;20233;-83
2023/10/12 00:06:39;;;;;;;3.73;1.40;;;13.40;99.90;;;;;;5066466;28;20227;-82
2023/10/12 00:09:17;;;;;;;4.87;1.70;;;13.40;99.90;;;;;;5082380;28;20244;-82
2023/10/12 00:11:54;;;;;;;5.13;1.60;;;13.30;99.90;;;;;;5070341;28;20218;-82
2023/10/12 00:14:22;;;;;;;5.30;1.50;;;13.20;99.90;;;;;;5067767;28;20223;-81
2023/10/12 00:16:50;;;;;;;6.67;1.77;;;13.10;99.90;;;;;;5071683;28;20227;-82
2023/10/12 00:19:17;;;;;;;7.20;1.70;;;13.00;99.90;;;;;;5057563;28;20230;-79
2023/10/12 00:21:44;;;;;;;7.43;1.87;;;13.00;99.90;;;;;;5056225;28;20227;-80
2023/10/12 00:24:12;;;;;;;6.80;1.80;;;12.90;99.90;;;;;;5066323;28;20904;-79
2023/10/12 00:26:42;;;;;;;6.10;1.80;;;12.90;99.90;;;;;;5061469;28;20763;-79
2023/10/12 00:29:10;;;;;;;7.17;1.87;;;12.90;99.90;;;;;;5066041;28;20309;-79
2023/10/12 00:31:42;;;;;;;8.23;1.70;;;12.80;99.90;;;;;;5066177;28;20290;-79
2023/10/12 00:34:12;;;;;;;7.37;1.73;;;12.90;99.90;;;;;;5079495;28;20309;-79
2023/10/12 00:36:40;;;;;;;9.27;2.00;;;12.80;99.90;;;;;;5065685;28;20280;-79
2023/10/12 00:39:10;;;;;;;8.03;2.10;;;12.80;99.90;;;;;;5063506;28;20704;-79
2023/10/12 00:41:38;;;;;;;10.57;2.20;;;12.80;99.90;;;;;;5066709;28;20376;-79
2023/10/12 00:44:12;;;;;;;8.03;1.70;;;12.80;99.90;;;;;;5068028;28;20295;-80
2023/10/12 00:46:52;;;;;;;8.87;2.03;;;12.70;99.90;;;;;;5066560;28;20520;-80
2023/10/12 00:49:29;;;;;;;12.93;2.43;;;12.70;99.90;;;;;;5080282;28;20235;-79
2023/10/12 00:52:08;;;;;;;12.43;2.20;;;12.70;99.90;;;;;;5064785;28;20952;-80
2023/10/12 00:54:55;;;;;;;11.77;2.67;;;12.60;99.90;;;;;;5069097;28;20238;-79
2023/10/12 00:57:22;;;;;;;7.70;2.50;;;12.60;99.90;;;;;;5066351;28;20396;-79
2023/10/12 00:59:52;;;;;;;10.93;2.43;;;12.50;99.90;;;;;;5066327;28;20235;-78
2023/10/12 01:02:24;;;;;;;10.60;2.83;;;12.50;99.90;;;;;;5061742;28;20224;-79
2023/10/12 01:04:53;;;;;;;10.33;2.60;;;12.40;99.90;;;;;;5067196;28;20227;-80
2023/10/12 01:07:25;;;;;;;10.97;2.57;;;12.40;99.90;;;;;;5065939;28;20810;-80
2023/10/12 01:10:02;;;;;;;12.13;2.43;;;12.30;99.90;;;;;;5067819;28;20464;-80
2023/10/12 01:12:31;;;;;;;13.10;2.30;;;12.30;99.90;;;;;;5064819;28;20243;-80
2023/10/12 01:15:04;;;;;;;8.80;2.30;;;12.20;99.90;;;;;;5065437;28;20225;-80
2023/10/12 01:17:35;;;;;;;9.20;2.50;;;12.20;99.90;;;;;;5062027;28;20334;-81
2023/10/12 01:20:11;;;;;;;8.73;2.27;;;12.10;99.90;;;;;;5068540;28;20436;-80
2023/10/12 01:22:39;;;;;;;7.87;2.27;;;12.10;99.90;;;;;;5077718;28;20217;-80
2023/10/12 01:25:19;;;;;;;11.73;2.57;;;12.00;99.90;;;;;;5067223;28;20252;-80
2023/10/12 01:27:46;;;;;;;8.20;2.00;;;12.00;99.90;;;;;;5063877;28;20897;-79
2023/10/12 01:30:17;;;;;;;9.77;2.23;;;12.00;99.90;;;;;;5061521;28;20312;-79
2023/10/12 01:32:44;;;;;;;11.77;2.70;;;11.90;99.90;;;;;;5064013;28;20231;-79
2023/10/12 01:35:13;;;;;;;13.73;2.67;;;11.90;99.90;;;;;;5066979;28;20275;-80
2023/10/12 01:37:48;;;;;;;10.73;2.63;;;11.90;99.90;;;;;;5066752;28;20219;-80
2023/10/12 01:40:21;;;;;;;12.67;2.60;;;11.90;99.90;;;;;;5062467;28;20231;-80
2023/10/12 01:42:51;;;;;;;10.90;2.30;;;11.90;99.90;;;;;;5064490;28;20757;-80
2023/10/12 01:45:25;;;;;;;10.30;2.37;;;11.90;99.90;;;;;;5067775;28;20782;-79
2023/10/12 01:47:55;;;;;;;11.23;2.40;;;11.90;99.90;;;;;;5069662;28;20227;-79
2023/10/12 01:50:25;;;;;;;11.57;2.47;;;11.90;99.90;;;;;;5059792;28;20223;-79
2023/10/12 01:52:55;;;;;;;7.40;2.20;;;11.90;99.90;;;;;;5067688;28;20219;-79
2023/10/12 01:55:28;;;;;;;9.73;2.20;;;11.90;99.90;;;;;;5067690;28;20220;-80
2023/10/12 01:57:55;;;;;;;12.20;2.63;;;11.80;99.90;;;;;;5064756;28;20222;-80
2023/10/12 02:00:28;;;;;;;6.87;2.30;;;11.80;99.90;;;;;;5065884;28;20237;-80
2023/10/12 02:03:12;;;;;;;11.67;1.93;;;11.80;99.90;;;;;;5068395;28;20219;-79
2023/10/12 02:05:46;;;;;;;13.63;2.90;;;11.90;99.90;;;;;;5061164;28;20232;-79
2023/10/12 02:08:16;;;;;;;12.77;2.33;;;11.80;99.90;;;;;;5063794;28;20247;-79
2023/10/12 02:10:55;;;;;;;14.17;2.83;;;11.80;99.90;;;;;;5062909;28;20239;-78
2023/10/12 02:13:22;;;;;;;8.13;2.10;;;11.80;99.90;;;;;;5060342;28;20215;-78
2023/10/12 02:15:50;;;;;;;9.57;2.77;;;11.80;99.90;;;;;;5061247;28;20669;-78
2023/10/12 02:18:18;;;;;;;9.73;2.70;;;11.80;99.90;;;;;;5069050;28;20284;-79
2023/10/12 02:21:06;;;;;;;11.87;2.00;;;11.80;99.90;;;;;;5061011;28;20248;-79
2023/10/12 02:23:38;;;;;;;11.43;2.87;;;11.80;99.90;;;;;;5062536;28;20224;-79
2023/10/12 02:26:28;;;;;;;10.80;2.10;;;11.80;99.90;;;;;;5063394;28;20215;-79
2023/10/12 02:29:00;;;;;;;10.00;2.17;;;11.70;99.90;;;;;;5065029;28;20238;-80
2023/10/12 02:31:28;;;;;;;13.17;2.43;;;11.80;99.90;;;;;;5063896;28;20250;-80
2023/10/12 02:33:55;;;;;;;11.43;2.80;;;11.80;99.90;;;;;;5098509;28;20885;-80
2023/10/12 02:36:26;;;;;;;15.43;2.40;;;11.70;99.90;;;;;;5067284;28;20220;-80
2023/10/12 02:38:58;;;;;;;12.33;2.27;;;11.70;99.90;;;;;;5065534;28;20231;-80
2023/10/12 02:41:26;;;;;;;12.83;2.70;;;11.70;99.90;;;;;;5064607;28;21193;-79
2023/10/12 02:43:54;;;;;;;7.23;2.93;;;11.70;99.90;;;;;;5062437;28;20717;-79
2023/10/12 02:46:23;;;;;;;14.93;3.37;;;11.60;99.90;;;;;;5065193;28;20222;-79
2023/10/12 02:48:50;;;;;;;9.40;2.50;;;11.60;99.90;;;;;;5067625;28;20285;-79
2023/10/12 02:51:18;;;;;;;11.57;2.67;;;11.60;99.90;;;;;;5065006;28;20221;-79
2023/10/12 02:53:47;;;;;;;8.10;2.13;;;11.50;99.90;;;;;;5073832;28;20221;-79
2023/10/12 02:56:21;;;;;;;16.63;2.90;;;11.50;99.90;;;;;;5043182;28;20228;-80
2023/10/12 02:58:48;;;;;;;11.50;2.33;;;11.50;99.90;;;;;;5058553;28;20738;-80
2023/10/12 03:01:19;;;;;;;9.80;2.30;;;11.50;99.90;;;;;;5066270;28;20214;-79
2023/10/12 03:03:49;;;;;;;13.03;2.30;;;11.50;99.90;;;;;;5066052;28;20262;-79
2023/10/12 03:06:21;;;;;;;10.10;2.10;;;11.40;99.90;;;;;;5061151;28;20221;-80
2023/10/12 03:09:02;;;;;;;11.73;2.63;;;11.40;99.90;;;;;;5060327;28;20232;-79
2023/10/12 03:11:31;;;;;;;11.97;2.40;;;11.40;99.90;;;;;;5061536;28;20233;-79
2023/10/12 03:14:01;;;;;;;9.27;2.00;;;11.30;99.90;;;;;;5060157;28;20302;-78
2023/10/12 03:16:33;;;;;;;9.70;2.13;;;11.30;99.90;;;;;;5052693;28;20235;-78
2023/10/12 03:19:17;;;;;;;10.27;2.63;;;11.30;99.90;;;;;;5063339;28;20227;-79
2023/10/12 03:21:46;;;;;;;11.23;2.60;;;11.30;99.90;;;;;;5066098;28;20228;-78
2023/10/12 03:24:15;;;;;;;8.00;2.93;;;11.30;99.90;;;;;;5066923;28;20222;-78
2023/10/12 03:26:48;;;;;;;13.07;2.60;;;11.20;99.90;;;;;;5066808;28;20221;-79
2023/10/12 03:29:19;;;;;;;12.23;2.63;;;11.30;99.90;;;;;;5067725;28;20228;-79
2023/10/12 03:31:54;;;;;;;12.70;2.70;;;11.20;99.90;;;;;;5070712;28;20248;-79
2023/10/12 03:37:03;;;;;;;9.90;2.37;;;11.20;99.90;;;;;;5060333;28;20273;-80
2023/10/12 03:39:33;;;;;;;9.47;2.20;;;11.20;99.90;;;;;;5069262;28;20235;-78
2023/10/12 03:42:10;;;;;;;9.17;2.87;;;11.20;99.90;;;;;;5077318;28;20701;-79
2023/10/12 03:44:48;;;;;;;12.60;2.53;;;11.20;99.90;;;;;;5067530;28;20239;-79
2023/10/12 03:47:17;;;;;;;10.10;1.97;;;11.10;99.90;;;;;;5064041;28;20219;-79
2023/10/12 03:49:57;;;;;;;8.47;2.30;;;11.10;99.90;;;;;;5066329;28;20653;-80
2023/10/12 03:52:34;;;;;;;10.13;2.60;;;11.10;99.90;;;;;;5063090;28;20230;-79
2023/10/12 03:55:16;;;;;;;11.87;2.43;;;11.10;99.90;;;;;;5076614;28;20321;-79
2023/10/12 03:58:00;;;;;;;11.77;2.70;;;11.10;99.90;;;;;;5062081;28;20739;-78
2023/10/12 04:00:34;;;;;;;13.43;2.57;;;11.10;99.90;;;;;;5065218;28;20296;-80
2023/10/12 04:03:19;;;;;;;10.53;2.20;;;11.10;99.90;;;;;;5069016;28;20230;-79
2023/10/12 04:05:51;;;;;;;11.83;2.07;;;11.10;99.90;;;;;;5067913;28;20269;-79
2023/10/12 04:14:17;;;;;;;9.97;2.80;;;11.00;99.90;;;;;;5077335;28;21088;-79
2023/10/12 04:16:45;;;;;;;10.80;2.27;;;11.00;99.90;;;;;;5066471;28;20220;-79
2023/10/12 04:19:15;;;;;;;12.20;2.57;;;11.00;99.90;;;;;;5064883;28;20323;-79
2023/10/12 04:22:05;;;;;;;12.33;2.57;;;11.00;99.90;;;;;;5067558;28;20220;-79
2023/10/12 04:24:42;;;;;;;14.03;2.47;;;11.00;99.90;;;;;;5057723;28;20724;-79
2023/10/12 04:27:38;;;;;;;14.63;2.70;;;11.00;99.90;;;;;;5065217;28;20311;-80
2023/10/12 04:30:20;;;;;;;10.10;2.67;;;11.00;99.90;;;;;;5074471;28;20266;-79
2023/10/12 04:32:54;;;;;;;11.83;2.40;;;11.00;99.90;;;;;;5080563;28;20228;-80
2023/10/12 04:35:33;;;;;;;13.20;2.97;;;11.00;99.90;;;;;;5064177;28;20430;-80
2023/10/12 04:38:08;;;;;;;13.07;3.00;;;11.00;99.90;;;;;;5068060;28;20308;-79
2023/10/12 04:40:37;;;;;;;15.77;2.93;;;10.90;99.90;;;;;;5065924;28;20881;-80
2023/10/12 04:43:06;;;;;;;9.50;2.83;;;11.00;99.90;;;;;;5081863;28;20262;-80
2023/10/12 04:48:21;;;;;;;10.40;2.40;;;11.00;99.90;;;;;;5077046;28;20336;-80
2023/10/12 04:50:52;;;;;;;10.97;2.47;;;11.00;99.90;;;;;;5062040;28;20293;-79
2023/10/12 04:53:19;;;;;;;10.40;2.40;;;11.00;99.90;;;;;;5062353;28;20314;-79
2023/10/12 04:55:48;;;;;;;11.50;2.47;;;11.10;99.90;;;;;;5068020;28;20226;-79
2023/10/12 04:58:31;;;;;;;11.13;2.10;;;11.10;99.90;;;;;;5063856;28;20224;-79
2023/10/12 05:01:12;;;;;;;12.00;2.47;;;11.10;99.90;;;;;;5070509;28;20281;-79
2023/10/12 05:03:41;;;;;;;16.83;3.13;;;11.20;99.90;;;;;;5065502;28;20225;-80
2023/10/12 05:06:08;;;;;;;9.13;2.37;;;11.20;99.90;;;;;;5066242;28;20325;-79
2023/10/12 05:08:36;;;;;;;8.57;2.30;;;11.20;99.90;;;;;;5063138;28;20258;-78
2023/10/12 05:11:06;;;;;;;11.77;3.00;;;11.20;99.90;;;;;;5059342;28;20783;-78
2023/10/12 05:13:33;;;;;;;12.23;2.97;;;11.20;99.90;;;;;;5061605;28;20701;-78
2023/10/12 05:16:06;;;;;;;13.37;2.80;;;11.20;99.90;;;;;;5059935;28;20219;-78
2023/10/12 05:18:37;;;;;;;13.17;2.83;;;11.30;99.90;;;;;;5062042;28;20973;-79
2023/10/12 05:21:08;;;;;;;7.23;2.17;;;11.30;99.90;;;;;;5097249;27;20227;-79
2023/10/12 05:23:35;;;;;;;8.93;2.63;;;11.30;99.90;;;;;;5068822;28;20277;-79
2023/10/12 05:26:11;;;;;;;17.03;3.10;;;11.30;99.90;;;;;;5063372;28;20226;-78
2023/10/12 05:31:28;;;;;;;12.17;2.53;;;11.30;99.90;;;;;;5063112;28;20219;-79
2023/10/12 05:36:42;;;;;;;13.23;3.00;;;11.30;99.90;;;;;;5073912;28;20320;-80
2023/10/12 05:39:13;;;;;;;7.70;2.27;;;11.40;99.90;;;;;;5064268;28;20223;-81
2023/10/12 05:41:40;;;;;;;8.67;2.40;;;11.30;99.90;;;;;;5057920;28;20272;-80
2023/10/12 05:44:13;;;;;;;12.03;3.00;;;11.40;99.90;;;;;;5066666;28;20221;-80
2023/10/12 05:46:45;;;;;;;17.60;3.37;;;11.40;99.90;;;;;;5068478;28;20224;-80
2023/10/12 05:49:13;;;;;;;9.80;2.70;;;11.40;99.90;;;;;;5062807;28;20282;-80
2023/10/12 05:51:43;;;;;;;11.37;3.03;;;11.30;99.90;;;;;;5067636;28;20227;-80
2023/10/12 05:54:15;;;;;;;10.80;2.93;;;11.40;99.90;;;;;;5068265;28;20223;-81
2023/10/12 05:56:43;;;;;;;10.83;3.00;;;11.40;99.90;;;;;;5060731;28;20226;-81
2023/10/12 05:59:12;;;;;;;13.53;2.77;;;11.40;99.90;;;;;;5060169;28;20227;-80
2023/10/12 06:01:40;;;;;;;12.70;3.37;;;11.40;99.90;;;;;;5057824;28;21104;-79
2023/10/12 06:04:08;;;;;;;10.97;2.70;;;11.40;99.90;;;;;;5062290;28;20227;-79
2023/10/12 06:06:35;;;;;;;15.77;2.70;;;11.40;99.90;;;;;;5070874;28;20314;-81
2023/10/12 06:09:05;;;;;;;10.53;2.97;;;11.40;99.90;;;;;;5073483;28;20806;-81
2023/10/12 06:11:32;;;;;;;13.90;2.67;;;11.30;99.90;;;;;;5073414;28;20217;-82
2023/10/12 06:14:00;;;;;;;10.87;3.03;;;11.40;99.90;;;;;;5075078;28;20241;-82
2023/10/12 06:16:28;;;;;;;14.37;2.87;;;11.30;99.90;;;;;;5073181;28;20233;-81
2023/10/12 06:18:54;;;;;;;15.00;3.20;;;11.30;99.90;;;;;;5071340;22;20255;-75
2023/10/12 06:21:24;;;;;;;7.73;2.67;;;11.30;99.90;;;;;;5048246;28;20735;-76
2023/10/12 06:23:51;;;;;;;14.63;2.57;;;11.30;99.90;;;;;;5042820;28;20278;-76
2023/10/12 06:26:28;;;;;;;10.10;2.30;;;11.30;99.90;;;;;;5043789;28;20721;-76
2023/10/12 06:28:59;;;;;;;8.60;2.43;;;11.30;99.90;;;;;;5043256;28;20411;-74
2023/10/12 06:31:29;;;;;;;10.60;2.33;;;11.30;99.90;;;;;;5044052;28;20231;-76
2023/10/12 06:33:56;;;;;;;10.03;2.47;;;11.30;99.90;;;;;;5045470;28;20323;-77
2023/10/12 06:36:37;;;;;;;16.77;3.07;;;11.30;99.90;;;;;;5045292;28;20252;-74
2023/10/12 06:41:59;;;;;;;10.50;2.93;;;11.30;99.90;;;;;;5044272;28;20318;-76
2023/10/12 06:44:25;;;;;;;13.87;2.70;;;11.40;99.90;;;;;;5044719;28;20278;-75
2023/10/12 06:46:53;;;;;;;13.47;2.70;;;11.40;99.90;;;;;;5043881;28;20313;-76
2023/10/12 06:49:22;;;;;;;13.10;3.10;;;11.50;99.90;;;;;;5044786;28;20225;-75
2023/10/12 06:52:00;;;;;;;11.23;2.70;;;11.40;99.90;;;;;;5044193;28;20601;-74
2023/10/12 06:54:32;;;;;;;14.93;3.80;;;11.50;99.90;;;;;;5049252;28;20234;-74
2023/10/12 07:00:17;;;;;;;14.13;3.30;;;11.60;99.90;;;;;;5046229;28;20317;-74
2023/10/12 07:02:43;;;;;;;13.13;2.57;;;11.60;99.90;;;;;;5046892;28;20222;-75
2023/10/12 07:05:10;;;;;;;11.93;2.90;;;11.70;99.90;;;;;;5048692;28;20587;-75
2023/10/12 07:07:41;;;;;;;10.70;2.70;;;11.70;99.90;;;;;;5048998;28;20229;-75
2023/10/12 07:10:27;;;;;;;11.40;3.13;;;11.70;99.90;;;;;;5048708;28;20216;-76
2023/10/12 07:13:00;;;;;;;9.73;2.70;;;11.70;99.90;;;;;;5048858;28;20314;-75
2023/10/12 07:15:33;;;;;;;9.03;2.30;;;11.80;99.90;;;;;;5046975;28;20224;-74
2023/10/12 07:18:06;;;;;;;8.97;1.90;;;11.80;99.90;;;;;;5046745;28;20317;-73
2023/10/12 07:20:43;;;;;;;10.90;2.50;;;11.80;99.90;;;;;;5046647;28;20226;-73
2023/10/12 07:23:15;;;;;;;10.80;2.73;;;11.90;99.90;;;;;;5048263;28;20762;-74
2023/10/12 07:25:48;;;;;;;11.17;2.70;;;11.90;99.90;;;;;;5048324;28;20262;-75
2023/10/12 07:28:18;;;;;;;16.13;2.87;;;11.90;99.90;;;;;;5048121;28;20222;-74
2023/10/12 07:31:04;;;;;;;17.10;3.30;;;12.00;99.90;;;;;;5048696;28;20227;-73
2023/10/12 07:33:31;;;;;;;12.67;2.80;;;12.00;99.90;;;;;;5040640;28;20255;-74
2023/10/12 07:36:08;;;;;;;10.10;2.93;;;12.00;99.90;;;;;;5046669;28;20224;-76
2023/10/12 07:38:36;;;;;;;17.00;3.93;;;12.10;99.90;;;;;;5047508;28;20304;-76
2023/10/12 07:41:04;;;;;;;13.97;2.63;;;12.10;99.90;;;;;;5047730;28;20221;-78
2023/10/12 07:43:32;;;;;;;16.73;2.70;;;12.10;99.90;;;;;;5036052;28;20228;-79
2023/10/12 07:46:09;;;;;;;10.93;2.93;;;12.10;99.90;;;;;;5046755;28;20221;-79
2023/10/12 07:48:42;;;;;;;8.77;2.40;;;12.10;99.90;;;;;;5045955;28;20223;-77
2023/10/12 07:51:16;;;;;;;9.93;2.60;;;12.20;99.90;;;;;;5040072;28;20778;-76
2023/10/12 07:53:44;;;;;;;11.00;2.77;;;12.20;99.90;;;;;;5047503;28;20724;-76
2023/10/12 07:56:16;;;;;;;8.50;2.60;;;12.30;99.90;;;;;;5046501;28;20688;-76
2023/10/12 07:58:44;;;;;;;12.00;2.83;;;12.30;99.90;;;;;;5045725;28;20235;-77
2023/10/12 08:01:39;;;;;;;13.23;2.83;;;12.40;99.90;;;;;;5043873;28;20228;-78
2023/10/12 08:04:19;;;;;;;7.57;2.10;;;12.50;99.90;;;;;;5044136;28;20219;-76
2023/10/12 08:06:46;;;;;;;16.03;3.10;;;12.60;99.90;;;;;;5046954;28;20561;-78
2023/10/12 08:09:47;;;;;;;11.40;2.20;;;12.70;99.90;;;;;;5043233;28;20233;-77
2023/10/12 08:14:50;;;;;;;11.10;2.83;;;12.90;99.90;;;;;;5041324;28;20234;-77
2023/10/12 08:17:26;;;;;;;7.80;2.33;;;13.10;99.90;;;;;;5037024;28;20231;-76
2023/10/12 08:19:56;;;;;;;13.47;2.57;;;13.10;99.90;;;;;;5042869;28;20598;-77
2023/10/12 08:22:26;;;;;;;10.80;2.63;;;13.20;99.90;;;;;;5042410;28;20209;-76
2023/10/12 08:24:58;;;;;;;8.43;2.47;;;13.20;99.90;;;;;;5043461;28;20314;-77
2023/10/12 08:27:24;;;;;;;9.90;2.47;;;13.40;99.90;;;;;;5039267;28;20598;-77
2023/10/12 08:32:36;;;;;;;11.57;2.47;;;13.40;99.90;;;;;;5038872;28;20217;-78
2023/10/12 08:35:11;;;;;;;11.23;2.27;;;13.50;99.90;;;;;;5037073;28;20228;-76
2023/10/12 08:38:01;;;;;;;10.10;2.43;;;13.60;99.90;;;;;;5064946;28;20572;-77
2023/10/12 08:40:27;;;;;;;8.57;2.20;;;13.80;99.90;;;;;;5036614;28;20393;-77
2023/10/12 08:42:58;;;;;;;11.20;2.93;;;14.10;99.90;;;;;;5041612;28;20256;-76
2023/10/12 08:45:28;;;;;;;10.77;2.80;;;14.50;99.90;;;;;;5038707;28;20306;-77
2023/10/12 08:48:01;;;;;;;8.70;2.40;;;14.80;99.90;;;;;;5041061;28;20311;-77
2023/10/12 08:53:19;;;;;;;9.10;2.60;;;15.30;99.90;;;;;;5041703;28;20240;-77
2023/10/12 08:55:49;;;;;;;10.23;2.83;;;15.60;99.90;;;;;;5042930;28;20226;-78
2023/10/12 08:58:38;;;;;;;9.40;2.10;;;15.70;99.90;;;;;;5042493;28;20461;-77
2023/10/12 09:01:20;;;;;;;8.73;2.23;;;16.00;99.90;;;;;;5041778;28;20699;-77
2023/10/12 09:03:49;;;;;;;14.03;2.47;;;16.20;99.90;;;;;;5036629;28;20234;-77
2023/10/12 09:06:29;;;;;;;7.60;1.87;;;16.40;99.90;;;;;;5042844;28;20231;-77
2023/10/12 09:08:57;;;;;;;9.23;2.37;;;16.50;99.90;;;;;;5042528;28;20235;-77
2023/10/12 09:11:29;;;;;;;8.57;2.37;;;16.60;99.90;;;;;;5040895;28;20342;-77
2023/10/12 09:13:58;;;;;;;9.67;2.17;;;16.60;99.90;;;;;;5065125;28;20258;-77
2023/10/12 09:16:26;;;;;;;8.33;2.20;;;16.70;99.90;;;;;;5035838;28;20230;-77
2023/10/12 09:18:57;;;;;;;9.80;2.00;;;16.60;99.90;;;;;;5073186;28;20620;-77
2023/10/12 09:21:27;;;;;;;9.43;1.87;;;16.50;99.90;;;;;;5037746;28;20317;-77
2023/10/12 09:24:05;;;;;;;7.23;2.03;;;16.40;99.90;;;;;;5038616;28;20242;-77
2023/10/12 09:26:34;;;;;;;9.47;1.90;;;16.40;99.90;;;;;;5039094;28;20225;-77
2023/10/12 09:29:20;;;;;;;8.57;1.70;;;16.30;99.90;;;;;;5042463;28;20323;-77
2023/10/12 09:35:02;;;;;;;7.07;1.87;;;16.10;99.90;;;;;;5029038;28;20231;-78
2023/10/12 09:37:33;;;;;;;7.00;1.77;;;16.00;99.90;;;;;;5038577;28;20225;-78
2023/10/12 09:40:00;;;;;;;6.77;1.83;;;16.00;99.90;;;;;;5041333;28;20758;-76
2023/10/12 09:42:33;;;;;;;9.40;1.90;;;15.90;99.90;;;;;;5028844;28;20250;-77
2023/10/12 09:45:05;;;;;;;14.13;2.27;;;15.90;99.90;;;;;;5043104;28;20234;-77
2023/10/12 09:47:55;;;;;;;9.97;2.30;;;15.90;99.90;;;;;;5040505;28;20689;-77
2023/10/12 09:50:27;;;;;;;7.07;2.40;;;16.00;99.90;;;;;;5040120;28;20622;-78
2023/10/12 09:53:12;;;;;;;6.40;1.83;;;16.00;99.90;;;;;;5040047;28;20602;-77
2023/10/12 09:55:51;;;;;;;6.83;1.93;;;16.00;99.90;;;;;;5043746;28;20230;-78
2023/10/12 09:58:23;;;;;;;7.03;2.53;;;16.00;99.90;;;;;;5041787;28;20276;-78
2023/10/12 10:01:07;;;;;;;7.73;1.90;;;16.00;99.90;;;;;;5042139;28;20522;-77
2023/10/12 10:03:47;;;;;;;10.87;2.23;;;16.00;99.90;;;;;;5040838;28;20330;-78
2023/10/12 10:06:28;;;;;;;9.77;2.20;;;16.00;99.90;;;;;;5043283;28;20234;-77
2023/10/12 10:09:19;;;;;;;8.47;2.03;;;16.10;99.90;;;;;;5041875;28;20242;-77
2023/10/12 10:11:57;;;;;;;7.20;2.23;;;16.10;99.90;;;;;;5039311;28;20227;-78
2023/10/12 10:14:29;;;;;;;10.77;2.17;;;16.20;99.90;;;;;;5041956;28;20440;-77
2023/10/12 10:16:59;;;;;;;8.60;2.13;;;16.30;99.90;;;;;;5041412;28;20235;-77
2023/10/12 10:19:29;;;;;;;8.60;2.00;;;16.40;99.90;;;;;;5041251;28;20281;-77
2023/10/12 10:22:05;;;;;;;8.50;2.30;;;16.60;99.90;;;;;;5040056;28;20277;-77
2023/10/12 10:24:35;;;;;;;6.63;1.77;;;16.70;99.90;;;;;;5040476;28;20945;-77
2023/10/12 10:27:11;;;;;;;7.23;2.20;;;16.80;99.90;;;;;;5046249;28;20232;-77
2023/10/12 10:29:52;;;;;;;8.33;2.30;;;16.90;99.90;;;;;;5043669;28;20230;-76
2023/10/12 10:32:23;;;;;;;7.87;2.33;;;17.00;99.90;;;;;;5042905;28;20226;-77
2023/10/12 10:34:55;;;;;;;7.93;1.97;;;17.10;99.90;;;;;;5043783;28;20764;-77
2023/10/12 10:37:38;;;;;;;8.00;2.10;;;17.20;99.90;;;;;;5048380;28;20231;-77
2023/10/12 10:40:09;;;;;;;8.13;1.93;;;17.20;99.90;;;;;;5042530;28;20235;-78
2023/10/12 10:42:37;;;;;;;8.23;1.90;;;17.30;99.90;;;;;;5043542;28;20686;-77
2023/10/12 10:45:12;;;;;;;5.03;1.63;;;17.40;99.90;;;;;;5046115;28;20281;-76
2023/10/12 10:47:49;;;;;;;6.93;1.90;;;17.50;99.90;;;;;;5043061;28;20589;-76
2023/10/12 10:50:17;;;;;;;11.77;2.10;;;17.60;99.90;;;;;;5042056;28;20524;-77
2023/10/12 10:52:44;;;;;;;11.17;2.40;;;17.70;99.90;;;;;;5044619;28;20593;-76
2023/10/12 10:55:12;;;;;;;8.43;2.40;;;17.70;99.90;;;;;;5045501;28;20586;-76
2023/10/12 10:57:39;;;;;;;7.57;1.93;;;17.80;99.90;;;;;;5043049;28;20621;-78
2023/10/12 11:00:13;;;;;;;8.10;2.00;;;17.90;99.90;;;;;;5045408;28;20234;-77
2023/10/12 11:02:41;;;;;;;6.73;1.80;;;17.90;99.90;;;;;;5045608;28;20218;-77
2023/10/12 11:05:19;;;;;;;6.57;1.97;;;18.00;99.90;;;;;;5045721;28;20278;-76
2023/10/12 11:07:50;;;;;;;7.33;2.40;;;18.00;99.90;;;;;;5076046;28;20281;-77
2023/10/12 11:10:31;;;;;;;7.80;1.97;;;18.10;99.90;;;;;;5044218;28;20244;-77
2023/10/12 11:13:00;;;;;;;6.60;1.87;;;18.10;99.90;;;;;;5043029;28;20229;-76
2023/10/12 11:15:27;;;;;;;7.07;1.90;;;18.10;99.90;;;;;;5026206;28;20226;-76
2023/10/12 11:18:15;;;;;;;5.27;1.93;;;18.20;99.90;;;;;;5046817;28;20238;-77
2023/10/12 11:20:49;;;;;;;8.53;2.23;;;18.10;99.90;;;;;;5045767;28;20226;-76
2023/10/12 11:23:17;;;;;;;7.23;2.07;;;18.10;99.90;;;;;;5042523;28;20217;-77
2023/10/12 11:25:44;;;;;;;8.43;1.80;;;18.00;99.90;;;;;;5044725;28;20230;-77
2023/10/12 11:28:19;;;;;;;8.40;1.87;;;18.00;99.90;;;;;;5046804;28;20241;-77
2023/10/12 11:30:46;;;;;;;8.43;1.80;;;17.90;99.90;;;;;;5046028;28;20226;-76
2023/10/12 11:33:16;;;;;;;5.53;1.57;;;17.80;99.90;;;;;;5045603;28;20493;-77
2023/10/12 11:35:44;;;;;;;9.63;2.13;;;17.80;99.90;;;;;;5046773;28;20223;-78
2023/10/12 11:38:17;;;;;;;5.57;1.60;;;17.80;99.90;;;;;;5046658;28;20697;-76
2023/10/12 11:40:44;;;;;;;4.77;2.07;;;17.70;99.90;;;;;;5046613;28;20598;-77
2023/10/12 11:43:11;;;;;;;7.07;1.90;;;17.70;99.90;;;;;;5046110;28;20241;-76
2023/10/12 11:45:54;;;;;;;6.17;1.70;;;17.70;99.90;;;;;;5038392;28;20223;-77
2023/10/12 11:48:24;;;;;;;8.00;2.23;;;17.80;99.90;;;;;;5043251;28;20222;-77
2023/10/12 11:50:51;;;;;;;9.87;1.80;;;17.80;99.90;;;;;;5046258;28;20225;-77
2023/10/12 11:53:18;;;;;;;7.50;2.30;;;17.80;99.90;;;;;;5045056;28;20786;-77
2023/10/12 11:55:46;;;;;;;6.37;1.77;;;17.80;99.90;;;;;;5043865;28;20233;-77
2023/10/12 11:58:18;;;;;;;7.40;2.10;;;17.80;99.90;;;;;;5045072;28;20218;-77
2023/10/12 12:00:48;;;;;;;8.07;2.07;;;17.80;99.90;;;;;;5060231;28;20310;-77
2023/10/12 12:03:15;;;;;;;5.30;1.70;;;17.70;99.90;;;;;;5044099;28;20268;-76
2023/10/12 12:05:50;;;;;;;5.87;1.80;;;17.70;99.90;;;;;;5047139;28;20220;-77
2023/10/12 12:08:18;;;;;;;6.60;1.77;;;17.70;99.90;;;;;;5043869;28;20221;-77
2023/10/12 12:10:46;;;;;;;6.43;2.23;;;17.70;99.90;;;;;;5044837;28;20231;-76
2023/10/12 12:13:13;;;;;;;7.47;2.10;;;17.80;99.90;;;;;;5043449;28;20302;-76
2023/10/12 12:15:43;;;;;;;7.63;2.07;;;17.90;99.90;;;;;;5043944;28;20228;-77
2023/10/12 12:18:14;;;;;;;6.90;1.90;;;18.00;99.90;;;;;;5043871;28;20322;-77
2023/10/12 12:20:44;;;;;;;9.53;1.90;;;18.10;99.90;;;;;;5044374;28;20230;-77
2023/10/12 12:23:12;;;;;;;5.00;1.93;;;18.20;99.90;;;;;;5042874;28;20223;-77
2023/10/12 12:25:40;;;;;;;7.77;1.80;;;18.30;99.90;;;;;;5045736;28;20219;-75
2023/10/12 12:28:08;;;;;;;6.47;1.40;;;18.40;99.90;;;;;;5046120;28;20358;-77
2023/10/12 12:30:39;;;;;;;9.40;2.17;;;18.40;99.90;;;;;;5043716;28;20635;-76
2023/10/12 12:33:08;;;;;;;5.83;2.00;;;18.50;99.90;;;;;;5035810;28;20258;-77
2023/10/12 12:35:37;;;;;;;5.03;1.97;;;18.40;99.90;;;;;;5044998;28;20331;-78
2023/10/12 12:38:17;;;;;;;6.67;1.90;;;18.30;99.90;;;;;;5033158;28;20228;-77
2023/10/12 12:40:45;;;;;;;6.83;1.47;;;18.20;99.90;;;;;;5043216;28;20225;-79
2023/10/12 12:43:12;;;;;;;8.67;1.67;;;18.00;99.90;;;;;;5042849;28;20223;-78
2023/10/12 12:45:40;;;;;;;4.90;1.60;;;17.90;99.90;;;;;;5043045;28;20232;-80
2023/10/12 12:48:08;;;;;;;5.70;1.70;;;17.70;99.90;;;;;;5043388;28;20232;-80
2023/10/12 12:50:34;;;;;;;8.33;1.77;;;17.50;99.90;;;;;;5043781;28;20318;-78
2023/10/12 12:53:04;;;;;;;7.23;2.40;;;17.40;99.90;;;;;;5041398;28;20278;-77
2023/10/12 12:55:32;;;;;;;5.40;1.73;;;17.20;99.90;;;;;;5046370;28;20227;-77
2023/10/12 12:58:00;;;;;;;5.37;1.70;;;17.10;99.90;;;;;;5047669;28;20244;-78
2023/10/12 13:00:33;;;;;;;5.97;1.80;;;16.90;99.90;;;;;;5039408;28;20248;-78
2023/10/12 13:03:00;;;;;;;7.63;1.60;;;16.90;99.90;;;;;;5049025;28;20233;-78
2023/10/12 13:05:28;;;;;;;7.53;1.80;;;16.70;99.90;;;;;;5037650;28;20228;-77
2023/10/12 13:07:55;;;;;;;8.67;1.70;;;16.60;99.90;;;;;;5037697;28;20235;-78
2023/10/12 13:10:22;;;;;;;7.07;1.70;;;16.60;99.90;;;;;;5035786;28;20220;-78
2023/10/12 13:12:49;;;;;;;7.77;1.90;;;16.50;99.90;;;;;;5042058;28;20223;-77
2023/10/12 13:15:17;;;;;;;6.93;1.70;;;16.50;99.90;;;;;;5036169;28;20228;-77
2023/10/12 13:17:44;;;;;;;8.17;1.73;;;16.40;99.90;;;;;;5045534;28;20230;-78
2023/10/12 13:20:21;;;;;;;9.50;1.77;;;16.30;99.90;;;;;;5044881;28;20227;-78
2023/10/12 13:22:48;;;;;;;5.43;1.40;;;16.20;99.90;;;;;;5040735;28;20215;-77
2023/10/12 13:25:17;;;;;;;7.00;1.50;;;16.10;99.90;;;;;;5038184;28;20236;-78
2023/10/12 13:27:45;;;;;;;6.17;1.57;;;16.10;99.90;;;;;;5045677;28;20225;-78
2023/10/12 13:30:14;;;;;;;6.20;1.63;;;16.00;99.90;;;;;;5044212;28;20317;-77
2023/10/12 13:32:43;;;;;;;9.27;1.87;;;15.90;99.90;;;;;;5044778;28;20237;-78
2023/10/12 13:35:28;;;;;;;6.73;1.90;;;15.80;99.90;;;;;;5044633;28;20237;-78
2023/10/12 13:37:56;;;;;;;11.53;1.70;;;15.80;99.90;;;;;;5049693;28;20720;-79
2023/10/12 13:40:23;;;;;;;8.03;1.57;;;15.70;99.90;;;;;;5048591;28;20226;-78
2023/10/12 13:42:49;;;;;;;6.33;1.50;;;15.70;99.90;;;;;;5048318;28;20260;-78